sensor_id;sensor_type;location;lat;lon;timestamp;pressure;altitude;pressure_sealevel;temperature;humidity
48216;BME280;34005;48.844;10.098;2024-02-28T00:00:15;96586.72;;;8.07;70.30
48216;BME280;34005;48.844;10.098;2024-02-28T00:02:44;96589.00;;;8.02;70.98
48216;BME280;34005;48.844;10.098;2024-02-28T00:05:12;96586.09;;;7.97;72.70
48216;BME280;34005;48.844;10.098;2024-02-28T00:07:39;96591.44;;;7.95;71.42
48216;BME280;34005;48.844;10.098;2024-02-28T00:10:08;96589.03;;;7.94;71.22
48216;BME280;34005;48.844;10.098;2024-02-28T00:12:35;96587.72;;;7.90;70.67
48216;BME280;34005;48.844;10.098;2024-02-28T00:15:04;96592.28;;;7.88;70.94
48216;BME280;34005;48.844;10.098;2024-02-28T00:17:38;96596.16;;;7.92;72.11
48216;BME280;34005;48.844;10.098;2024-02-28T00:20:09;96591.28;;;7.97;70.61
48216;BME280;34005;48.844;10.098;2024-02-28T00:22:38;96596.31;;;7.98;72.63
48216;BME280;34005;48.844;10.098;2024-02-28T00:25:06;96587.53;;;7.99;71.92
48216;BME280;34005;48.844;10.098;2024-02-28T00:27:34;96584.94;;;7.99;72.42
48216;BME280;34005;48.844;10.098;2024-02-28T00:30:02;96590.63;;;8.03;73.88
48216;BME280;34005;48.844;10.098;2024-02-28T00:32:32;96586.38;;;8.10;75.03
48216;BME280;34005;48.844;10.098;2024-02-28T00:35:00;96585.88;;;8.15;75.63
48216;BME280;34005;48.844;10.098;2024-02-28T00:37:29;96591.88;;;8.15;74.29
48216;BME280;34005;48.844;10.098;2024-02-28T00:39:57;96589.94;;;8.17;74.28
48216;BME280;34005;48.844;10.098;2024-02-28T00:42:24;96594.66;;;8.14;73.08
48216;BME280;34005;48.844;10.098;2024-02-28T00:44:53;96592.88;;;8.14;74.47
48216;BME280;34005;48.844;10.098;2024-02-28T00:47:21;96587.50;;;8.16;75.03
48216;BME280;34005;48.844;10.098;2024-02-28T00:49:48;96589.47;;;8.14;74.04
48216;BME280;34005;48.844;10.098;2024-02-28T00:52:16;96592.88;;;8.14;74.96
48216;BME280;34005;48.844;10.098;2024-02-28T00:54:45;96593.81;;;8.13;74.92
48216;BME280;34005;48.844;10.098;2024-02-28T00:57:12;96587.66;;;8.14;76.21
48216;BME280;34005;48.844;10.098;2024-02-28T00:59:40;96587.66;;;8.14;74.81
48216;BME280;34005;48.844;10.098;2024-02-28T01:02:09;96583.63;;;8.12;74.95
48216;BME280;34005;48.844;10.098;2024-02-28T01:04:36;96590.63;;;8.11;74.32
48216;BME280;34005;48.844;10.098;2024-02-28T01:07:04;96593.88;;;8.05;73.20
48216;BME280;34005;48.844;10.098;2024-02-28T01:09:31;96583.78;;;8.02;73.87
48216;BME280;34005;48.844;10.098;2024-02-28T01:12:00;96596.78;;;8.02;72.78
48216;BME280;34005;48.844;10.098;2024-02-28T01:14:28;96591.59;;;8.02;72.37
48216;BME280;34005;48.844;10.098;2024-02-28T01:16:55;96595.50;;;7.98;71.71
48216;BME280;34005;48.844;10.098;2024-02-28T01:19:23;96595.69;;;7.96;74.24
48216;BME280;34005;48.844;10.098;2024-02-28T01:21:51;96594.19;;;8.02;75.74
48216;BME280;34005;48.844;10.098;2024-02-28T01:24:18;96594.03;;;8.03;73.61
48216;BME280;34005;48.844;10.098;2024-02-28T01:26:46;96596.47;;;8.05;74.37
48216;BME280;34005;48.844;10.098;2024-02-28T01:29:15;96593.38;;;8.01;72.63
48216;BME280;34005;48.844;10.098;2024-02-28T01:31:43;96595.50;;;7.98;71.99
48216;BME280;34005;48.844;10.098;2024-02-28T01:34:11;96593.56;;;7.92;71.40
48216;BME280;34005;48.844;10.098;2024-02-28T01:36:38;96588.03;;;7.87;71.68
48216;BME280;34005;48.844;10.098;2024-02-28T01:39:06;96595.19;;;7.84;71.35
48216;BME280;34005;48.844;10.098;2024-02-28T01:41:33;96585.94;;;7.82;71.15
48216;BME280;34005;48.844;10.098;2024-02-28T01:44:01;96593.44;;;7.85;73.70
48216;BME280;34005;48.844;10.098;2024-02-28T01:46:30;96594.53;;;7.91;74.23
48216;BME280;34005;48.844;10.098;2024-02-28T01:48:59;96597.63;;;7.94;72.68
48216;BME280;34005;48.844;10.098;2024-02-28T01:51:27;96601.03;;;7.95;72.03
48216;BME280;34005;48.844;10.098;2024-02-28T01:53:56;96612.72;;;7.99;73.59
48216;BME280;34005;48.844;10.098;2024-02-28T01:56:23;96612.56;;;8.00;73.62
48216;BME280;34005;48.844;10.098;2024-02-28T01:58:52;96614.00;;;8.03;75.54
48216;BME280;34005;48.844;10.098;2024-02-28T02:01:20;96621.16;;;8.09;76.86
48216;BME280;34005;48.844;10.098;2024-02-28T02:03:49;96618.53;;;8.09;76.10
48216;BME280;34005;48.844;10.098;2024-02-28T02:06:17;96621.94;;;8.10;76.69
48216;BME280;34005;48.844;10.098;2024-02-28T02:08:46;96620.31;;;8.17;77.70
48216;BME280;34005;48.844;10.098;2024-02-28T02:11:15;96638.00;;;8.21;77.66
48216;BME280;34005;48.844;10.098;2024-02-28T02:13:47;96639.44;;;8.24;76.91
48216;BME280;34005;48.844;10.098;2024-02-28T02:16:16;96644.00;;;8.22;75.08
48216;BME280;34005;48.844;10.098;2024-02-28T02:18:44;96647.44;;;8.14;74.04
48216;BME280;34005;48.844;10.098;2024-02-28T02:21:15;96650.38;;;8.03;72.79
48216;BME280;34005;48.844;10.098;2024-02-28T02:23:46;96653.63;;;7.97;73.62
48216;BME280;34005;48.844;10.098;2024-02-28T02:26:13;96656.88;;;7.91;72.22
48216;BME280;34005;48.844;10.098;2024-02-28T02:28:41;96654.25;;;7.82;71.63
48216;BME280;34005;48.844;10.098;2024-02-28T02:31:10;96663.84;;;7.82;73.96
48216;BME280;34005;48.844;10.098;2024-02-28T02:33:38;96667.91;;;7.84;72.80
48216;BME280;34005;48.844;10.098;2024-02-28T02:36:06;96669.38;;;7.87;73.82
48216;BME280;34005;48.844;10.098;2024-02-28T02:38:33;96670.84;;;7.90;74.13
48216;BME280;34005;48.844;10.098;2024-02-28T02:41:03;96682.84;;;7.91;73.78
48216;BME280;34005;48.844;10.098;2024-02-28T02:43:30;96681.22;;;7.90;73.60
48216;BME280;34005;48.844;10.098;2024-02-28T02:45:58;96684.13;;;7.87;72.51
48216;BME280;34005;48.844;10.098;2024-02-28T02:48:25;96679.78;;;7.79;72.09
48216;BME280;34005;48.844;10.098;2024-02-28T02:50:53;96682.03;;;7.74;71.36
48216;BME280;34005;48.844;10.098;2024-02-28T02:53:21;96689.34;;;7.70;73.56
48216;BME280;34005;48.844;10.098;2024-02-28T02:55:48;96696.16;;;7.71;75.39
48216;BME280;34005;48.844;10.098;2024-02-28T02:58:17;96697.78;;;7.72;73.26
48216;BME280;34005;48.844;10.098;2024-02-28T03:00:44;96691.75;;;7.72;73.03
48216;BME280;34005;48.844;10.098;2024-02-28T03:03:12;96692.91;;;7.69;72.46
48216;BME280;34005;48.844;10.098;2024-02-28T03:05:40;96690.94;;;7.71;73.84
48216;BME280;34005;48.844;10.098;2024-02-28T03:08:08;96698.44;;;7.74;74.03
48216;BME280;34005;48.844;10.098;2024-02-28T03:10:36;96699.09;;;7.76;73.84
48216;BME280;34005;48.844;10.098;2024-02-28T03:13:03;96699.88;;;7.77;74.63
48216;BME280;34005;48.844;10.098;2024-02-28T03:15:34;96702.97;;;7.80;75.87
48216;BME280;34005;48.844;10.098;2024-02-28T03:18:02;96705.75;;;7.87;76.70
48216;BME280;34005;48.844;10.098;2024-02-28T03:20:30;96706.38;;;7.89;74.90
48216;BME280;34005;48.844;10.098;2024-02-28T03:22:57;96711.09;;;7.86;75.43
48216;BME280;34005;48.844;10.098;2024-02-28T03:25:25;96711.91;;;7.86;76.55
48216;BME280;34005;48.844;10.098;2024-02-28T03:27:52;96714.50;;;7.86;75.63
48216;BME280;34005;48.844;10.098;2024-02-28T03:30:21;96718.88;;;7.86;75.59
48216;BME280;34005;48.844;10.098;2024-02-28T03:32:50;96725.38;;;7.81;73.20
48216;BME280;34005;48.844;10.098;2024-02-28T03:35:17;96726.00;;;7.75;73.56
48216;BME280;34005;48.844;10.098;2024-02-28T03:37:45;96731.53;;;7.72;75.20
48216;BME280;34005;48.844;10.098;2024-02-28T03:40:13;96736.06;;;7.70;75.71
48216;BME280;34005;48.844;10.098;2024-02-28T03:42:41;96733.63;;;7.69;74.40
48216;BME280;34005;48.844;10.098;2024-02-28T03:45:08;96741.56;;;7.67;73.56
48216;BME280;34005;48.844;10.098;2024-02-28T03:47:36;96742.72;;;7.64;73.61
48216;BME280;34005;48.844;10.098;2024-02-28T03:50:06;96754.22;;;7.62;72.81
48216;BME280;34005;48.844;10.098;2024-02-28T03:52:34;96748.38;;;7.60;73.62
48216;BME280;34005;48.844;10.098;2024-02-28T03:55:02;96751.31;;;7.57;73.03
48216;BME280;34005;48.844;10.098;2024-02-28T03:57:29;96746.41;;;7.54;72.83
48216;BME280;34005;48.844;10.098;2024-02-28T03:59:57;96750.00;;;7.53;74.45
48216;BME280;34005;48.844;10.098;2024-02-28T04:02:24;96750.66;;;7.55;73.34
48216;BME280;34005;48.844;10.098;2024-02-28T04:04:52;96749.63;;;7.48;72.36
48216;BME280;34005;48.844;10.098;2024-02-28T04:07:21;96750.78;;;7.45;72.87
48216;BME280;34005;48.844;10.098;2024-02-28T04:09:48;96757.75;;;7.45;73.38
48216;BME280;34005;48.844;10.098;2024-02-28T04:12:19;96759.38;;;7.37;75.15
48216;BME280;34005;48.844;10.098;2024-02-28T04:14:46;96759.66;;;7.34;75.75
48216;BME280;34005;48.844;10.098;2024-02-28T04:17:14;96758.06;;;7.33;74.15
48216;BME280;34005;48.844;10.098;2024-02-28T04:19:41;96758.66;;;7.27;74.71
48216;BME280;34005;48.844;10.098;2024-02-28T04:22:09;96750.22;;;7.25;73.47
48216;BME280;34005;48.844;10.098;2024-02-28T04:24:38;96753.28;;;7.20;72.99
48216;BME280;34005;48.844;10.098;2024-02-28T04:27:05;96751.50;;;7.13;73.02
48216;BME280;34005;48.844;10.098;2024-02-28T04:29:36;96749.53;;;7.07;73.09
48216;BME280;34005;48.844;10.098;2024-02-28T04:32:04;96752.13;;;7.07;73.99
48216;BME280;34005;48.844;10.098;2024-02-28T04:34:31;96755.66;;;7.06;74.08
48216;BME280;34005;48.844;10.098;2024-02-28T04:36:59;96758.59;;;7.03;73.50
48216;BME280;34005;48.844;10.098;2024-02-28T04:39:26;96761.47;;;6.99;73.38
48216;BME280;34005;48.844;10.098;2024-02-28T04:41:55;96762.31;;;7.00;73.59
48216;BME280;34005;48.844;10.098;2024-02-28T04:44:23;96760.38;;;7.02;74.05
48216;BME280;34005;48.844;10.098;2024-02-28T04:46:51;96760.84;;;7.06;73.74
48216;BME280;34005;48.844;10.098;2024-02-28T04:49:18;96760.84;;;7.06;73.28
48216;BME280;34005;48.844;10.098;2024-02-28T04:51:47;96767.03;;;7.05;72.93
48216;BME280;34005;48.844;10.098;2024-02-28T04:54:15;96764.72;;;7.01;73.87
48216;BME280;34005;48.844;10.098;2024-02-28T04:56:43;96772.81;;;6.98;73.51
48216;BME280;34005;48.844;10.098;2024-02-28T04:59:12;96773.47;;;7.00;74.84
48216;BME280;34005;48.844;10.098;2024-02-28T05:01:40;96772.03;;;7.06;76.30
48216;BME280;34005;48.844;10.098;2024-02-28T05:04:09;96775.47;;;7.15;77.22
48216;BME280;34005;48.844;10.098;2024-02-28T05:06:37;96783.16;;;7.25;78.47
48216;BME280;34005;48.844;10.098;2024-02-28T05:09:06;96783.00;;;7.26;76.55
48216;BME280;34005;48.844;10.098;2024-02-28T05:11:34;96781.69;;;7.22;74.87
48216;BME280;34005;48.844;10.098;2024-02-28T05:14:01;96782.31;;;7.16;74.40
48216;BME280;34005;48.844;10.098;2024-02-28T05:16:30;96786.69;;;7.15;75.76
48216;BME280;34005;48.844;10.098;2024-02-28T05:18:58;96783.31;;;7.23;77.60
48216;BME280;34005;48.844;10.098;2024-02-28T05:21:26;96794.19;;;7.27;77.31
48216;BME280;34005;48.844;10.098;2024-02-28T05:23:54;96794.03;;;7.28;77.44
48216;BME280;34005;48.844;10.098;2024-02-28T05:26:22;96803.63;;;7.36;78.31
48216;BME280;34005;48.844;10.098;2024-02-28T05:28:49;96806.38;;;7.34;77.70
48216;BME280;34005;48.844;10.098;2024-02-28T05:31:21;96806.69;;;7.31;78.35
48216;BME280;34005;48.844;10.098;2024-02-28T05:33:50;96808.13;;;7.26;76.48
48216;BME280;34005;48.844;10.098;2024-02-28T05:36:18;96806.31;;;7.18;77.12
48216;BME280;34005;48.844;10.098;2024-02-28T05:38:46;96809.06;;;7.16;77.57
48216;BME280;34005;48.844;10.098;2024-02-28T05:41:13;96814.09;;;7.18;77.62
48216;BME280;34005;48.844;10.098;2024-02-28T05:43:41;96805.66;;;7.16;77.41
48216;BME280;34005;48.844;10.098;2024-02-28T05:46:08;96808.84;;;7.10;77.65
48216;BME280;34005;48.844;10.098;2024-02-28T05:48:36;96814.84;;;7.10;78.11
48216;BME280;34005;48.844;10.098;2024-02-28T05:51:05;96812.25;;;7.10;76.96
48216;BME280;34005;48.844;10.098;2024-02-28T05:53:33;96815.84;;;7.09;76.95
48216;BME280;34005;48.844;10.098;2024-02-28T05:56:02;96820.03;;;7.10;77.23
48216;BME280;34005;48.844;10.098;2024-02-28T05:58:30;96818.56;;;7.08;76.69
48216;BME280;34005;48.844;10.098;2024-02-28T06:00:58;96827.63;;;7.04;77.74
48216;BME280;34005;48.844;10.098;2024-02-28T06:03:26;96826.97;;;7.01;76.86
48216;BME280;34005;48.844;10.098;2024-02-28T06:05:53;96830.84;;;6.97;76.94
48216;BME280;34005;48.844;10.098;2024-02-28T06:08:25;96842.34;;;6.95;78.49
48216;BME280;34005;48.844;10.098;2024-02-28T06:10:52;96841.53;;;6.94;78.42
48216;BME280;34005;48.844;10.098;2024-02-28T06:13:20;96848.97;;;6.89;78.18
48216;BME280;34005;48.844;10.098;2024-02-28T06:15:48;96851.34;;;6.83;76.85
48216;BME280;34005;48.844;10.098;2024-02-28T06:18:15;96860.25;;;6.80;76.15
48216;BME280;34005;48.844;10.098;2024-02-28T06:20:43;96861.19;;;6.79;76.18
48216;BME280;34005;48.844;10.098;2024-02-28T06:23:11;96858.28;;;6.82;76.51
48216;BME280;34005;48.844;10.098;2024-02-28T06:25:50;96866.06;;;6.82;76.66
48216;BME280;34005;48.844;10.098;2024-02-28T06:28:18;96870.00;;;6.86;77.68
48216;BME280;34005;48.844;10.098;2024-02-28T06:30:45;96883.03;;;6.94;78.90
48216;BME280;34005;48.844;10.098;2024-02-28T06:33:13;96879.69;;;7.02;78.54
48216;BME280;34005;48.844;10.098;2024-02-28T06:35:41;96887.66;;;7.09;79.12
48216;BME280;34005;48.844;10.098;2024-02-28T06:38:08;96891.88;;;7.10;78.52
48216;BME280;34005;48.844;10.098;2024-02-28T06:40:36;96897.38;;;7.07;78.56
48216;BME280;34005;48.844;10.098;2024-02-28T06:43:05;96910.69;;;7.12;78.97
48216;BME280;34005;48.844;10.098;2024-02-28T06:45:33;96907.16;;;7.13;77.72
48216;BME280;34005;48.844;10.098;2024-02-28T06:48:01;96909.06;;;7.11;76.51
48216;BME280;34005;48.844;10.098;2024-02-28T06:50:30;96916.47;;;7.06;76.05
48216;BME280;34005;48.844;10.098;2024-02-28T06:52:57;96914.69;;;7.06;78.00
48216;BME280;34005;48.844;10.098;2024-02-28T06:55:25;96912.94;;;7.07;77.31
48216;BME280;34005;48.844;10.098;2024-02-28T06:57:52;96915.53;;;7.07;77.32
48216;BME280;34005;48.844;10.098;2024-02-28T07:00:22;96922.34;;;7.08;77.64
48216;BME280;34005;48.844;10.098;2024-02-28T07:02:49;96922.72;;;7.13;78.13
48216;BME280;34005;48.844;10.098;2024-02-28T07:05:17;96922.41;;;7.16;77.47
48216;BME280;34005;48.844;10.098;2024-02-28T07:07:44;96921.38;;;7.09;76.11
48216;BME280;34005;48.844;10.098;2024-02-28T07:10:12;96924.13;;;7.07;77.14
48216;BME280;34005;48.844;10.098;2024-02-28T07:12:40;96924.78;;;7.09;77.21
48216;BME280;34005;48.844;10.098;2024-02-28T07:15:08;96925.91;;;7.07;77.02
48216;BME280;34005;48.844;10.098;2024-02-28T07:17:37;96938.56;;;7.10;78.22
48216;BME280;34005;48.844;10.098;2024-02-28T07:20:05;96931.31;;;7.13;77.50
48216;BME280;34005;48.844;10.098;2024-02-28T07:22:33;96933.38;;;7.10;76.68
48216;BME280;34005;48.844;10.098;2024-02-28T07:25:01;96939.47;;;7.00;77.10
48216;BME280;34005;48.844;10.098;2024-02-28T07:27:28;96946.25;;;6.93;76.10
48216;BME280;34005;48.844;10.098;2024-02-28T07:29:56;96944.38;;;6.86;76.42
48216;BME280;34005;48.844;10.098;2024-02-28T07:32:23;96956.53;;;6.85;78.14
48216;BME280;34005;48.844;10.098;2024-02-28T07:34:52;96951.63;;;6.82;76.51
48216;BME280;34005;48.844;10.098;2024-02-28T07:37:20;96958.09;;;6.78;76.78
48216;BME280;34005;48.844;10.098;2024-02-28T07:39:47;96956.81;;;6.82;78.33
48216;BME280;34005;48.844;10.098;2024-02-28T07:42:15;96967.56;;;6.87;78.22
48216;BME280;34005;48.844;10.098;2024-02-28T07:44:44;96962.53;;;6.86;76.73
48216;BME280;34005;48.844;10.098;2024-02-28T07:47:11;96962.66;;;6.84;77.73
48216;BME280;34005;48.844;10.098;2024-02-28T07:49:40;96958.16;;;6.86;77.59
48216;BME280;34005;48.844;10.098;2024-02-28T07:52:09;96958.81;;;6.88;78.07
48216;BME280;34005;48.844;10.098;2024-02-28T07:54:37;96959.50;;;6.90;78.15
48216;BME280;34005;48.844;10.098;2024-02-28T07:57:04;96959.81;;;6.87;76.68
48216;BME280;34005;48.844;10.098;2024-02-28T07:59:38;96964.69;;;6.90;78.21
48216;BME280;34005;48.844;10.098;2024-02-28T08:02:07;96968.16;;;6.99;78.33
48216;BME280;34005;48.844;10.098;2024-02-28T08:04:36;96978.06;;;7.04;78.23
48216;BME280;34005;48.844;10.098;2024-02-28T08:07:03;96978.47;;;7.09;79.07
48216;BME280;34005;48.844;10.098;2024-02-28T08:09:32;96977.63;;;7.08;77.99
48216;BME280;34005;48.844;10.098;2024-02-28T08:12:00;96973.56;;;7.06;77.54
48216;BME280;34005;48.844;10.098;2024-02-28T08:14:28;96974.16;;;6.99;75.82
48216;BME280;34005;48.844;10.098;2024-02-28T08:16:55;96970.84;;;6.89;75.87
48216;BME280;34005;48.844;10.098;2024-02-28T08:19:23;96983.00;;;6.89;77.08
48216;BME280;34005;48.844;10.098;2024-02-28T08:21:50;96988.69;;;6.92;77.28
48216;BME280;34005;48.844;10.098;2024-02-28T08:24:18;96982.81;;;6.90;76.06
48216;BME280;34005;48.844;10.098;2024-02-28T08:26:47;96984.63;;;6.90;76.78
48216;BME280;34005;48.844;10.098;2024-02-28T08:29:15;96986.91;;;6.93;76.63
48216;BME280;34005;48.844;10.098;2024-02-28T08:31:43;96983.00;;;6.89;75.46
48216;BME280;34005;48.844;10.098;2024-02-28T08:34:11;96984.41;;;6.83;75.68
48216;BME280;34005;48.844;10.098;2024-02-28T08:36:39;96986.69;;;6.86;77.54
48216;BME280;34005;48.844;10.098;2024-02-28T08:39:07;96995.50;;;6.93;77.53
48216;BME280;34005;48.844;10.098;2024-02-28T08:41:35;96985.59;;;6.89;76.09
48216;BME280;34005;48.844;10.098;2024-02-28T08:44:04;96991.50;;;6.81;75.16
48216;BME280;34005;48.844;10.098;2024-02-28T08:46:32;96986.91;;;6.75;75.34
48216;BME280;34005;48.844;10.098;2024-02-28T08:49:00;96996.03;;;6.79;77.58
48216;BME280;34005;48.844;10.098;2024-02-28T08:51:27;96998.84;;;6.86;78.05
48216;BME280;34005;48.844;10.098;2024-02-28T08:53:55;97003.22;;;6.85;76.37
48216;BME280;34005;48.844;10.098;2024-02-28T08:56:23;97004.78;;;6.78;75.68
48216;BME280;34005;48.844;10.098;2024-02-28T08:58:51;97000.53;;;6.77;77.33
48216;BME280;34005;48.844;10.098;2024-02-28T09:01:20;97001.88;;;6.81;77.36
48216;BME280;34005;48.844;10.098;2024-02-28T09:03:48;97003.66;;;6.80;76.21
48216;BME280;34005;48.844;10.098;2024-02-28T09:06:15;97005.72;;;6.77;76.28
48216;BME280;34005;48.844;10.098;2024-02-28T09:08:43;97015.28;;;6.76;75.94
48216;BME280;34005;48.844;10.098;2024-02-28T09:11:10;97006.25;;;6.80;76.63
48216;BME280;34005;48.844;10.098;2024-02-28T09:13:39;97008.41;;;6.85;78.16
48216;BME280;34005;48.844;10.098;2024-02-28T09:16:06;97007.72;;;6.83;76.74
48216;BME280;34005;48.844;10.098;2024-02-28T09:18:35;97009.00;;;6.79;75.57
48216;BME280;34005;48.844;10.098;2024-02-28T09:21:03;97016.41;;;6.74;74.85
48216;BME280;34005;48.844;10.098;2024-02-28T09:23:31;97011.94;;;6.66;75.20
48216;BME280;34005;48.844;10.098;2024-02-28T09:25:58;97008.16;;;6.60;75.02
48216;BME280;34005;48.844;10.098;2024-02-28T09:28:30;97010.75;;;6.60;77.09
48216;BME280;34005;48.844;10.098;2024-02-28T09:30:57;97019.94;;;6.73;78.63
48216;BME280;34005;48.844;10.098;2024-02-28T09:33:25;97017.75;;;6.78;77.71
48216;BME280;34005;48.844;10.098;2024-02-28T09:35:54;97015.66;;;6.81;76.45
48216;BME280;34005;48.844;10.098;2024-02-28T09:38:21;97013.06;;;6.81;75.60
48216;BME280;34005;48.844;10.098;2024-02-28T09:40:49;97021.00;;;6.80;76.46
48216;BME280;34005;48.844;10.098;2024-02-28T09:43:24;97027.34;;;6.86;76.51
48216;BME280;34005;48.844;10.098;2024-02-28T09:45:58;97023.88;;;6.95;78.25
48216;BME280;34005;48.844;10.098;2024-02-28T09:48:27;97034.47;;;7.01;78.18
48216;BME280;34005;48.844;10.098;2024-02-28T09:50:57;97034.47;;;7.01;75.96
48216;BME280;34005;48.844;10.098;2024-02-28T09:53:26;97037.00;;;6.93;75.90
48216;BME280;34005;48.844;10.098;2024-02-28T09:55:53;97036.03;;;6.94;75.81
48216;BME280;34005;48.844;10.098;2024-02-28T09:58:22;97037.16;;;6.92;74.97
48216;BME280;34005;48.844;10.098;2024-02-28T10:00:52;97039.22;;;6.88;74.62
48216;BME280;34005;48.844;10.098;2024-02-28T10:03:23;97039.22;;;6.88;74.70
48216;BME280;34005;48.844;10.098;2024-02-28T10:05:51;97041.00;;;6.88;74.57
48216;BME280;34005;48.844;10.098;2024-02-28T10:08:20;97043.91;;;6.85;73.86
48216;BME280;34005;48.844;10.098;2024-02-28T10:10:48;97048.84;;;6.78;73.82
48216;BME280;34005;48.844;10.098;2024-02-28T10:13:16;97049.13;;;6.75;74.74
48216;BME280;34005;48.844;10.098;2024-02-28T10:15:44;97056.19;;;6.83;76.16
48216;BME280;34005;48.844;10.098;2024-02-28T10:18:12;97058.56;;;6.94;77.20
48216;BME280;34005;48.844;10.098;2024-02-28T10:20:39;97064.78;;;7.01;77.46
48216;BME280;34005;48.844;10.098;2024-02-28T10:23:07;97065.81;;;7.08;78.54
48216;BME280;34005;48.844;10.098;2024-02-28T10:25:44;97061.50;;;7.17;76.15
48216;BME280;34005;48.844;10.098;2024-02-28T10:28:23;97055.38;;;7.18;76.59
48216;BME280;34005;48.844;10.098;2024-02-28T10:30:51;97061.91;;;7.22;77.37
48216;BME280;34005;48.844;10.098;2024-02-28T10:33:19;97066.34;;;7.30;76.99
48216;BME280;34005;48.844;10.098;2024-02-28T10:35:50;97069.72;;;7.30;75.83
48216;BME280;34005;48.844;10.098;2024-02-28T10:38:18;97071.69;;;7.28;75.45
48216;BME280;34005;48.844;10.098;2024-02-28T10:40:47;97075.75;;;7.31;76.44
48216;BME280;34005;48.844;10.098;2024-02-28T10:43:16;97072.56;;;7.37;75.59
48216;BME280;34005;48.844;10.098;2024-02-28T10:45:44;97070.34;;;7.42;75.50
48216;BME280;34005;48.844;10.098;2024-02-28T10:48:32;97060.31;;;7.47;75.40
48216;BME280;34005;48.844;10.098;2024-02-28T10:51:02;97065.03;;;7.52;77.28
48216;BME280;34005;48.844;10.098;2024-02-28T10:53:35;97060.91;;;7.59;77.50
48216;BME280;34005;48.844;10.098;2024-02-28T10:56:06;97064.00;;;7.62;76.34
48216;BME280;34005;48.844;10.098;2024-02-28T10:58:42;97060.72;;;7.60;74.45
48216;BME280;34005;48.844;10.098;2024-02-28T11:01:13;97063.84;;;7.64;75.90
48216;BME280;34005;48.844;10.098;2024-02-28T11:03:41;97071.03;;;7.70;75.33
48216;BME280;34005;48.844;10.098;2024-02-28T11:06:16;97072.38;;;7.74;73.89
48216;BME280;34005;48.844;10.098;2024-02-28T11:08:46;97085.50;;;7.73;73.18
48216;BME280;34005;48.844;10.098;2024-02-28T11:11:15;97086.00;;;7.76;75.83
48216;BME280;34005;48.844;10.098;2024-02-28T11:13:51;97073.91;;;7.85;75.48
48216;BME280;34005;48.844;10.098;2024-02-28T11:16:26;97075.06;;;7.91;77.45
48216;BME280;34005;48.844;10.098;2024-02-28T11:18:55;97075.56;;;7.94;76.32
48216;BME280;34005;48.844;10.098;2024-02-28T11:21:23;97085.50;;;7.99;75.00
48216;BME280;34005;48.844;10.098;2024-02-28T11:23:52;97081.63;;;8.03;74.29
48216;BME280;34005;48.844;10.098;2024-02-28T11:26:21;97084.22;;;8.03;74.45
48216;BME280;34005;48.844;10.098;2024-02-28T11:28:49;97085.38;;;8.09;75.36
48216;BME280;34005;48.844;10.098;2024-02-28T11:31:16;97078.44;;;8.09;74.82
48216;BME280;34005;48.844;10.098;2024-02-28T11:33:45;97086.56;;;8.14;75.83
48216;BME280;34005;48.844;10.098;2024-02-28T11:36:12;97081.72;;;8.19;75.88
48216;BME280;34005;48.844;10.098;2024-02-28T11:38:40;97076.50;;;8.19;73.78
48216;BME280;34005;48.844;10.098;2024-02-28T11:41:08;97072.16;;;8.20;75.19
48216;BME280;34005;48.844;10.098;2024-02-28T11:43:37;97071.31;;;8.19;72.50
48216;BME280;34005;48.844;10.098;2024-02-28T11:46:17;97067.25;;;8.17;72.24
48216;BME280;34005;48.844;10.098;2024-02-28T11:48:45;97081.03;;;8.17;74.33
48216;BME280;34005;48.844;10.098;2024-02-28T11:51:13;97077.34;;;8.20;74.53
48216;BME280;34005;48.844;10.098;2024-02-28T11:53:41;97080.78;;;8.29;75.26
48216;BME280;34005;48.844;10.098;2024-02-28T11:56:09;97087.16;;;8.34;75.21
48216;BME280;34005;48.844;10.098;2024-02-28T11:58:38;97087.81;;;8.36;72.80
48216;BME280;34005;48.844;10.098;2024-02-28T12:01:16;97087.66;;;8.38;73.61
48216;BME280;34005;48.844;10.098;2024-02-28T12:03:45;97085.06;;;8.38;71.24
48216;BME280;34005;48.844;10.098;2024-02-28T12:06:13;97092.00;;;8.29;70.63
48216;BME280;34005;48.844;10.098;2024-02-28T12:08:40;97083.03;;;8.23;70.95
48216;BME280;34005;48.844;10.098;2024-02-28T12:11:08;97085.94;;;8.20;70.34
48216;BME280;34005;48.844;10.098;2024-02-28T12:13:38;97093.09;;;8.18;69.77
48216;BME280;34005;48.844;10.098;2024-02-28T12:16:07;97076.97;;;8.15;70.16
48216;BME280;34005;48.844;10.098;2024-02-28T12:18:35;97079.09;;;8.11;70.05
48216;BME280;34005;48.844;10.098;2024-02-28T12:21:03;97085.09;;;8.12;71.67
48216;BME280;34005;48.844;10.098;2024-02-28T12:23:31;97081.97;;;8.08;70.67
48216;BME280;34005;48.844;10.098;2024-02-28T12:25:58;97081.63;;;8.03;69.95
48216;BME280;34005;48.844;10.098;2024-02-28T12:28:26;97078.38;;;8.01;70.13
48216;BME280;34005;48.844;10.098;2024-02-28T12:30:56;97081.63;;;8.03;70.73
48216;BME280;34005;48.844;10.098;2024-02-28T12:33:24;97071.25;;;8.03;70.27
48216;BME280;34005;48.844;10.098;2024-02-28T12:35:50;97071.91;;;8.05;71.50
48216;BME280;34005;48.844;10.098;2024-02-28T12:38:18;97075.97;;;8.08;70.83
48216;BME280;34005;48.844;10.098;2024-02-28T12:40:46;97072.91;;;8.12;72.46
48216;BME280;34005;48.844;10.098;2024-02-28T12:43:13;97071.91;;;8.13;70.97
48216;BME280;34005;48.844;10.098;2024-02-28T12:45:41;97065.13;;;8.12;70.23
48216;BME280;34005;48.844;10.098;2024-02-28T12:48:10;97073.22;;;8.09;70.32
48216;BME280;34005;48.844;10.098;2024-02-28T12:50:38;97074.19;;;8.08;69.81
48216;BME280;34005;48.844;10.098;2024-02-28T12:53:05;97064.91;;;8.05;69.64
48216;BME280;34005;48.844;10.098;2024-02-28T12:55:33;97070.09;;;8.05;69.26
48216;BME280;34005;48.844;10.098;2024-02-28T12:58:01;97071.72;;;8.07;69.50
48216;BME280;34005;48.844;10.098;2024-02-28T13:00:31;97074.03;;;8.10;71.41
48216;BME280;34005;48.844;10.098;2024-02-28T13:02:59;97064.78;;;8.15;71.44
48216;BME280;34005;48.844;10.098;2024-02-28T13:05:28;97062.56;;;8.20;72.31